Groton New London Airport
KGON : now visible

Airfield :











YOU CAN JOIN US ON...

 
LOGIN :

Register | Disclaimer

   EN    FR    IT 

 









Legend :    VFR   Marginal VFR   IFR   Intensive IFR   Very Intensive IFR
Visi :
Ceiling :
>= 8 km
>= 3000ft
5 to 8 km
1000 to 3000 ft
1500m to 5 km
500 to 1000 ft
800 to 1500m
200 to 500 ft
< 800m
< 200 ft
Symbols :   Thunderstorms  Fog  Heavy snow  Heavy precipitations  Wind > 20 kt






- Airport Elevation : 9 ft
- IATA code : GON


KGON - Groton New London

CURRENT METAR :
  • 221056Z 19003KT 7SM FEW005 20/19 A2965 RMK AO2 SLP041 T02000194

EXPIRED METARs :
  • 221042Z AUTO 00000KT 9SM SCT005 19/19 A2965 RMK AO2 T01940194
  • 221033Z AUTO 00000KT 2SM R05/1600VP6000FT BR SCT005 19/19 A2965 RMK AO2 T01940189
  • 221021Z AUTO 15003KT 1SM R05/1800V2600FT BR VV005 18/18 A2964 RMK AO2 T01830178
  • 220956Z AUTO 22003KT 8SM CLR 19/19 A2963 RMK AO2 SLP033 T01890189
  • 220925Z AUTO 30003KT 8SM SCT002 19/18 A2961 RMK AO2 T01890183
  • 220856Z AUTO 00000KT 8SM BKN003 BKN013 19/18 A2960 RMK AO2 SLP023 T01890183 58010
  • 220853Z AUTO 00000KT 8SM BKN003 BKN013 19/18 A2960 RMK AO2
  • 220805Z AUTO 00000KT 8SM FEW002 FEW120 19/18 A2960 RMK AO2 T01890183

TAF KGON
Valid from the 22 at 09:00 until the 23 at 06:00 UTC


220928Z 2209/2306 19004KT 6SM BR SCT003 BKN015
TEMPO 2209/2211 5SM BR BKN003
FM221300 24006KT P6SM SCT015 BKN150
FM221600 28008KT P6SM SCT030 SCT060 BKN100
PROB30 2218/2219 5SM -TSRA BR SCT030 BKN040CB
FM221900 34007KT 5SM -SHRA BR OVC015
FM230100 33004KT 5SM BR BKN020
FM230300 32004KT P6SM SCT030 SCT250
KZBW FIR / North America



MET'MAP, your aeronautical weather chart ! - Copyright ORBIFLY December 2007 - Disclaimer

ORBIFLY MET'MAP TEAM :

Programming & Development : Alexandra Zaïnal
Concept & original design : Baudouin d'Aumeries
Assistance for programming : Marc-Olivier Méhu
Technical & hardware support : Manuel Goepfert

Contact : metmap@orbifly.com




SOURCES & CREDITS :

   NOAA       Earth
Advisory